createdAt,value
2022-07-29T00:01:05.559Z,24.70
2022-07-29T00:03:32.659Z,24.70
2022-07-29T00:05:59.830Z,24.60
2022-07-29T00:08:28.024Z,24.60
2022-07-29T00:10:55.106Z,24.50
2022-07-29T00:13:32.640Z,24.50
2022-07-29T00:16:04.442Z,24.40
2022-07-29T00:18:32.864Z,24.40
2022-07-29T00:21:00.190Z,24.40
2022-07-29T00:23:27.195Z,24.40
2022-07-29T00:25:54.178Z,24.40
2022-07-29T00:28:21.261Z,24.50
2022-07-29T00:30:48.263Z,24.50
2022-07-29T00:33:15.346Z,24.50
2022-07-29T00:35:45.007Z,24.50
2022-07-29T00:38:16.580Z,24.60
2022-07-29T00:40:44.689Z,24.60
2022-07-29T00:43:14.113Z,24.60
2022-07-29T00:45:42.028Z,24.60
2022-07-29T00:48:09.875Z,24.60
2022-07-29T00:50:37.923Z,24.60
2022-07-29T00:53:07.711Z,24.60
2022-07-29T00:55:35.278Z,24.60
2022-07-29T00:58:02.666Z,24.60
2022-07-29T01:00:30.412Z,24.60
2022-07-29T01:02:57.734Z,24.60
2022-07-29T01:05:48.024Z,24.60
2022-07-29T01:08:17.120Z,24.60
2022-07-29T01:10:45.324Z,24.60
2022-07-29T01:13:12.972Z,24.60
2022-07-29T01:15:49.532Z,24.60
2022-07-29T01:18:39.839Z,24.50
2022-07-29T01:21:28.335Z,24.50
2022-07-29T01:24:33.265Z,24.50
2022-07-29T01:27:18.183Z,24.30
2022-07-29T01:29:58.238Z,24.20
2022-07-29T01:32:29.591Z,24.20
2022-07-29T01:35:29.719Z,24.20
2022-07-29T01:38:11.853Z,24.10
2022-07-29T01:40:54.086Z,24.10
2022-07-29T01:43:28.173Z,24.10
2022-07-29T01:46:03.165Z,24.00
2022-07-29T01:48:42.801Z,24.00
2022-07-29T01:51:36.163Z,24.00
2022-07-29T01:54:08.553Z,23.90
2022-07-29T01:56:37.415Z,23.90
2022-07-29T01:59:06.340Z,23.90
2022-07-29T02:01:37.117Z,23.90
2022-07-29T02:04:07.234Z,23.90
2022-07-29T02:06:38.399Z,23.90
2022-07-29T02:09:08.545Z,23.90
2022-07-29T02:11:38.689Z,23.90
2022-07-29T02:14:07.427Z,23.90
2022-07-29T02:16:36.536Z,23.90
2022-07-29T02:19:05.545Z,23.80
2022-07-29T02:21:34.725Z,23.80
2022-07-29T02:24:03.612Z,23.80
2022-07-29T02:26:33.433Z,23.70
2022-07-29T02:29:02.340Z,23.60
2022-07-29T02:31:33.919Z,23.60
2022-07-29T02:34:07.544Z,23.60
2022-07-29T02:36:35.285Z,23.60
2022-07-29T02:39:04.350Z,23.60
2022-07-29T02:41:43.614Z,23.60
2022-07-29T02:44:20.081Z,23.50
2022-07-29T02:47:00.081Z,23.50
2022-07-29T02:49:36.096Z,23.50
2022-07-29T02:52:08.714Z,23.60
2022-07-29T02:54:42.138Z,23.50
2022-07-29T02:57:33.862Z,23.50
2022-07-29T03:00:07.330Z,23.50
2022-07-29T03:02:37.778Z,23.50
2022-07-29T03:05:07.539Z,23.50
2022-07-29T03:07:36.387Z,23.50
2022-07-29T03:10:05.484Z,23.40
2022-07-29T03:12:38.485Z,23.40
2022-07-29T03:15:07.087Z,23.40
2022-07-29T03:17:34.934Z,23.40
2022-07-29T03:20:02.507Z,23.40
2022-07-29T03:22:30.171Z,23.40
2022-07-29T03:24:57.353Z,23.40
2022-07-29T03:27:24.406Z,23.40
2022-07-29T03:29:51.392Z,23.40
2022-07-29T03:32:22.390Z,23.40
2022-07-29T03:34:51.079Z,23.30
2022-07-29T03:37:18.039Z,23.20
2022-07-29T03:39:47.013Z,23.10
2022-07-29T03:42:17.433Z,23.10
2022-07-29T03:44:48.482Z,23.00
2022-07-29T03:47:17.627Z,23.00
2022-07-29T03:49:49.610Z,22.90
2022-07-29T03:52:17.257Z,23.00
2022-07-29T03:54:45.035Z,23.00
2022-07-29T03:57:13.348Z,23.00
2022-07-29T03:59:41.086Z,23.00
2022-07-29T04:02:12.063Z,23.00
2022-07-29T04:04:39.564Z,23.00
2022-07-29T04:07:06.909Z,23.00
2022-07-29T04:09:34.003Z,23.00
2022-07-29T04:12:02.957Z,23.00
2022-07-29T04:14:35.199Z,23.00
2022-07-29T04:17:03.809Z,23.00
2022-07-29T04:19:31.490Z,23.00
2022-07-29T04:22:00.514Z,23.00
2022-07-29T04:24:28.808Z,23.00
2022-07-29T04:26:56.150Z,23.00
2022-07-29T04:29:23.231Z,23.00
2022-07-29T04:31:50.241Z,23.00
2022-07-29T04:34:17.585Z,23.00
2022-07-29T04:36:45.057Z,23.00
2022-07-29T04:39:12.064Z,23.00
2022-07-29T04:41:39.241Z,23.00
2022-07-29T04:44:07.134Z,23.00
2022-07-29T04:46:35.437Z,23.10
2022-07-29T04:49:03.994Z,23.10
2022-07-29T04:51:31.242Z,23.10
2022-07-29T04:53:58.282Z,23.20
2022-07-29T04:56:25.433Z,23.30
2022-07-29T04:58:52.516Z,23.30
2022-07-29T05:01:20.002Z,23.40
2022-07-29T05:03:47.466Z,23.40
2022-07-29T05:06:14.486Z,23.50
2022-07-29T05:08:41.932Z,23.50
2022-07-29T05:11:12.451Z,23.50
2022-07-29T05:13:45.948Z,23.60
2022-07-29T05:16:14.921Z,23.60
2022-07-29T05:18:43.148Z,23.60
2022-07-29T05:21:10.470Z,23.70
2022-07-29T05:23:37.552Z,23.70
2022-07-29T05:26:04.619Z,23.90
2022-07-29T05:28:36.009Z,24.00
2022-07-29T05:31:03.644Z,24.20
2022-07-29T05:33:35.807Z,24.40
2022-07-29T05:36:08.287Z,24.50
2022-07-29T05:38:36.858Z,24.70
2022-07-29T05:41:05.268Z,24.90
2022-07-29T05:43:33.082Z,25.00
2022-07-29T05:46:00.624Z,25.20
2022-07-29T05:48:28.414Z,25.30
2022-07-29T05:50:55.951Z,25.40
2022-07-29T05:53:23.609Z,25.40
2022-07-29T05:55:51.317Z,25.50
2022-07-29T05:58:18.456Z,25.60
2022-07-29T06:00:45.553Z,25.60
2022-07-29T06:03:12.866Z,25.60
2022-07-29T06:05:39.966Z,25.70
2022-07-29T06:08:08.332Z,25.70
2022-07-29T06:10:39.348Z,25.80
2022-07-29T06:13:06.483Z,25.80
2022-07-29T06:15:34.352Z,25.80
2022-07-29T06:18:02.324Z,25.90
2022-07-29T06:20:33.137Z,26.00
2022-07-29T06:23:00.819Z,26.10
2022-07-29T06:25:31.427Z,26.20
2022-07-29T06:27:59.041Z,26.30
2022-07-29T06:30:26.253Z,26.40
2022-07-29T06:32:53.804Z,26.50
2022-07-29T06:35:38.501Z,26.70
2022-07-29T06:38:31.306Z,26.80
2022-07-29T06:41:08.640Z,26.90
2022-07-29T06:43:50.495Z,27.10
2022-07-29T06:46:20.705Z,27.20
2022-07-29T06:48:48.700Z,27.40
2022-07-29T06:51:15.955Z,27.60
2022-07-29T06:54:00.094Z,27.70
2022-07-29T06:56:38.849Z,27.80
2022-07-29T06:59:08.078Z,28.00
2022-07-29T07:01:36.115Z,28.20
2022-07-29T07:04:03.633Z,28.30
2022-07-29T07:06:30.871Z,28.40
2022-07-29T07:08:57.996Z,28.50
2022-07-29T07:11:25.343Z,28.60
2022-07-29T07:13:52.492Z,28.80
2022-07-29T07:16:19.767Z,29.00
2022-07-29T07:18:46.904Z,29.20
2022-07-29T07:21:19.397Z,29.50
2022-07-29T07:23:47.526Z,29.60
2022-07-29T07:26:15.679Z,29.80
2022-07-29T07:28:42.943Z,30.00
2022-07-29T07:31:10.629Z,30.20
2022-07-29T07:33:37.823Z,30.30
2022-07-29T07:36:05.196Z,30.50
2022-07-29T07:38:32.336Z,30.60
2022-07-29T07:40:59.926Z,30.70
2022-07-29T07:43:26.996Z,30.80
2022-07-29T07:45:54.148Z,31.00
2022-07-29T07:48:21.889Z,31.10
2022-07-29T07:50:50.383Z,31.20
2022-07-29T07:53:17.705Z,31.30
2022-07-29T07:58:33.389Z,31.50
2022-07-29T08:01:00.519Z,31.60
2022-07-29T08:03:27.645Z,31.50
2022-07-29T08:05:55.399Z,31.50
2022-07-29T08:08:22.717Z,31.40
2022-07-29T08:10:58.604Z,31.50
2022-07-29T08:13:31.533Z,31.40
2022-07-29T08:16:01.179Z,31.50
2022-07-29T08:18:30.126Z,31.60
2022-07-29T08:20:58.150Z,31.70
2022-07-29T08:23:25.608Z,31.80
2022-07-29T08:25:54.959Z,32.00
2022-07-29T08:28:25.972Z,32.10
2022-07-29T08:30:53.620Z,32.30
2022-07-29T08:33:20.771Z,32.40
2022-07-29T08:35:48.051Z,32.60
2022-07-29T08:38:15.140Z,32.70
2022-07-29T08:40:42.363Z,32.80
2022-07-29T08:43:10.225Z,32.90
2022-07-29T08:45:48.041Z,33.00
2022-07-29T08:48:19.782Z,33.00
2022-07-29T08:50:48.618Z,33.10
2022-07-29T08:53:18.922Z,33.20
2022-07-29T08:55:48.344Z,33.20
2022-07-29T08:58:16.130Z,33.40
2022-07-29T09:00:50.140Z,33.40
2022-07-29T09:03:21.218Z,33.60
2022-07-29T09:05:49.322Z,33.70
2022-07-29T09:08:17.791Z,33.80
2022-07-29T09:10:45.997Z,33.90
2022-07-29T09:13:13.347Z,34.00
2022-07-29T09:15:40.696Z,33.90
2022-07-29T09:18:19.506Z,34.00
2022-07-29T09:21:14.492Z,34.00
2022-07-29T09:23:42.841Z,34.00
2022-07-29T09:26:09.920Z,34.10
2022-07-29T09:28:43.258Z,34.20
2022-07-29T09:31:10.596Z,34.20
2022-07-29T09:33:40.410Z,34.30
2022-07-29T09:36:09.729Z,34.50
2022-07-29T09:38:38.393Z,34.50
2022-07-29T09:41:07.000Z,34.50
2022-07-29T09:43:35.181Z,34.50
2022-07-29T09:46:13.166Z,34.60
2022-07-29T09:48:40.848Z,34.70
2022-07-29T09:51:27.009Z,34.80
2022-07-29T09:54:26.892Z,35.00
2022-07-29T09:56:55.941Z,35.00
2022-07-29T09:59:27.462Z,35.00
2022-07-29T10:01:55.386Z,35.00
2022-07-29T10:04:23.076Z,35.00
2022-07-29T10:07:05.464Z,35.00
2022-07-29T10:09:34.293Z,35.00
2022-07-29T10:12:14.721Z,34.90
2022-07-29T10:14:42.999Z,34.80
2022-07-29T10:17:11.624Z,34.80
2022-07-29T10:19:40.350Z,34.90
2022-07-29T10:22:10.084Z,35.10
2022-07-29T10:24:38.561Z,35.20
2022-07-29T10:27:08.902Z,35.30
2022-07-29T10:29:36.888Z,35.40
2022-07-29T10:32:45.179Z,35.30
2022-07-29T10:35:46.237Z,35.30
2022-07-29T10:38:34.922Z,35.20
2022-07-29T10:41:23.187Z,35.20
2022-07-29T10:43:52.153Z,35.30
2022-07-29T10:46:19.840Z,35.40
2022-07-29T10:49:08.054Z,35.40
2022-07-29T10:51:54.444Z,35.50
2022-07-29T10:54:37.275Z,35.50
2022-07-29T10:57:21.665Z,35.60
2022-07-29T11:00:02.203Z,35.80
2022-07-29T11:02:42.117Z,35.90
2022-07-29T11:05:22.128Z,36.00
2022-07-29T11:08:16.201Z,36.30
2022-07-29T11:10:52.778Z,36.50
2022-07-29T11:13:46.495Z,36.70
2022-07-29T11:16:16.230Z,36.80
2022-07-29T11:19:13.216Z,36.80
2022-07-29T11:21:54.145Z,36.80
2022-07-29T11:24:29.282Z,36.90
2022-07-29T11:27:13.646Z,36.90
2022-07-29T11:29:49.812Z,37.10
2022-07-29T11:32:22.734Z,37.10
2022-07-29T11:35:17.280Z,37.10
2022-07-29T11:37:51.382Z,37.10
2022-07-29T11:40:23.135Z,36.90
2022-07-29T11:42:52.217Z,36.80
2022-07-29T11:45:44.050Z,36.70
2022-07-29T11:48:29.894Z,36.70
2022-07-29T11:51:00.142Z,36.60
2022-07-29T11:53:29.020Z,36.50
2022-07-29T11:56:00.904Z,36.40
2022-07-29T11:58:29.404Z,36.50
2022-07-29T12:00:57.900Z,36.50
2022-07-29T12:03:34.838Z,36.60
2022-07-29T12:06:11.917Z,36.70
2022-07-29T12:08:44.679Z,36.80
2022-07-29T12:11:21.772Z,36.70
2022-07-29T12:13:50.794Z,36.70
2022-07-29T12:16:29.250Z,36.70
2022-07-29T12:19:04.090Z,36.70
2022-07-29T12:21:59.371Z,36.70
2022-07-29T12:24:27.456Z,36.70
2022-07-29T12:26:57.146Z,36.60
2022-07-29T12:29:34.591Z,36.60
2022-07-29T12:32:05.367Z,36.50
2022-07-29T12:34:33.220Z,36.40
2022-07-29T12:37:00.610Z,36.30
2022-07-29T12:39:29.071Z,36.40
2022-07-29T12:42:03.897Z,36.40
2022-07-29T12:44:48.709Z,36.40
2022-07-29T12:47:16.493Z,36.50
2022-07-29T12:49:43.674Z,36.50
2022-07-29T12:52:30.822Z,36.60
2022-07-29T12:54:58.730Z,36.60
2022-07-29T12:57:26.749Z,36.60
2022-07-29T13:00:11.745Z,36.60
2022-07-29T13:02:43.413Z,36.70
2022-07-29T13:05:12.227Z,36.70
2022-07-29T13:07:55.274Z,36.60
2022-07-29T13:10:24.947Z,36.50
2022-07-29T13:13:10.385Z,36.30
2022-07-29T13:15:42.145Z,36.10
2022-07-29T13:18:32.230Z,36.00
2022-07-29T13:21:15.141Z,35.80
2022-07-29T13:23:42.940Z,35.90
2022-07-29T13:26:12.733Z,36.00
2022-07-29T13:28:40.945Z,36.10
2022-07-29T13:31:11.826Z,36.20
2022-07-29T13:33:38.919Z,36.30
2022-07-29T13:36:06.319Z,36.30
2022-07-29T13:38:33.375Z,36.50
2022-07-29T13:41:00.557Z,36.60
2022-07-29T13:43:27.653Z,36.70
2022-07-29T13:45:54.953Z,36.70
2022-07-29T13:48:22.248Z,36.70
2022-07-29T13:50:49.402Z,36.70
2022-07-29T13:53:17.885Z,36.70
2022-07-29T13:55:45.726Z,36.70
2022-07-29T13:58:12.884Z,36.70
2022-07-29T14:00:39.935Z,36.70
2022-07-29T14:03:07.540Z,36.70
2022-07-29T14:05:34.672Z,36.60
2022-07-29T14:08:01.723Z,36.50
2022-07-29T14:10:28.799Z,36.50
2022-07-29T14:12:55.853Z,36.50
2022-07-29T14:15:24.330Z,36.40
2022-07-29T14:17:51.417Z,36.40
2022-07-29T14:20:18.983Z,36.30
2022-07-29T14:22:46.063Z,36.30
2022-07-29T14:25:14.910Z,36.30
2022-07-29T14:27:43.918Z,36.50
2022-07-29T14:30:11.678Z,36.60
2022-07-29T14:32:38.769Z,36.70
2022-07-29T14:35:07.096Z,36.70
2022-07-29T14:37:39.750Z,36.70
2022-07-29T14:40:08.872Z,36.70
2022-07-29T14:42:37.126Z,36.70
2022-07-29T14:45:08.573Z,36.70
2022-07-29T14:47:35.742Z,36.70
2022-07-29T14:50:03.215Z,36.70
2022-07-29T14:52:30.393Z,36.70
2022-07-29T14:54:57.639Z,36.50
2022-07-29T14:57:24.908Z,36.40
2022-07-29T14:59:52.285Z,36.30
2022-07-29T15:02:19.501Z,36.00
2022-07-29T15:04:47.195Z,35.80
2022-07-29T15:07:14.529Z,35.70
2022-07-29T15:09:49.804Z,35.40
2022-07-29T15:12:17.544Z,35.20
2022-07-29T15:14:44.690Z,35.00
2022-07-29T15:17:11.822Z,34.80
2022-07-29T15:19:38.992Z,34.70
2022-07-29T15:22:11.934Z,34.50
2022-07-29T15:24:39.215Z,34.40
2022-07-29T15:27:06.267Z,34.30
2022-07-29T15:29:33.844Z,34.20
2022-07-29T15:32:01.138Z,34.10
2022-07-29T15:34:28.560Z,34.00
2022-07-29T15:36:55.598Z,33.90
2022-07-29T15:39:23.280Z,33.80
2022-07-29T15:41:51.362Z,33.80
2022-07-29T15:44:19.338Z,33.70
2022-07-29T15:47:03.764Z,33.60
2022-07-29T15:49:46.507Z,33.40
2022-07-29T15:52:26.042Z,33.00
2022-07-29T15:54:55.636Z,32.50
2022-07-29T15:57:23.643Z,31.90
2022-07-29T15:59:50.958Z,31.40
2022-07-29T16:02:18.120Z,31.10
2022-07-29T16:04:45.316Z,30.70
2022-07-29T16:07:12.501Z,30.40
2022-07-29T16:09:42.209Z,30.20
2022-07-29T16:12:12.648Z,29.90
2022-07-29T16:14:43.234Z,29.80
2022-07-29T16:17:14.409Z,29.70
2022-07-29T16:19:43.520Z,29.60
2022-07-29T16:22:11.853Z,29.60
2022-07-29T16:24:39.419Z,29.60
2022-07-29T16:27:06.910Z,29.50
2022-07-29T16:29:34.257Z,29.40
2022-07-29T16:32:01.475Z,29.30
2022-07-29T16:34:29.646Z,29.20
2022-07-29T16:36:56.738Z,29.10
2022-07-29T16:39:23.824Z,29.00
2022-07-29T16:41:50.998Z,29.00
2022-07-29T16:44:18.052Z,28.90
2022-07-29T16:46:45.766Z,28.90
2022-07-29T16:49:14.180Z,28.80
2022-07-29T16:51:48.030Z,28.70
2022-07-29T16:54:15.431Z,28.60
2022-07-29T16:56:42.731Z,28.60
2022-07-29T16:59:09.721Z,28.60
2022-07-29T17:01:36.805Z,28.60
2022-07-29T17:04:06.592Z,28.60
2022-07-29T17:06:35.217Z,28.70
2022-07-29T17:09:06.205Z,28.70
2022-07-29T17:11:51.609Z,28.70
2022-07-29T17:14:33.560Z,28.70
2022-07-29T17:17:03.067Z,28.70
2022-07-29T17:19:33.700Z,28.70
2022-07-29T17:22:12.657Z,28.60
2022-07-29T17:24:43.209Z,28.60
2022-07-29T17:27:10.875Z,28.60
2022-07-29T17:29:39.132Z,28.60
2022-07-29T17:32:07.673Z,28.50
2022-07-29T17:34:39.818Z,28.50
2022-07-29T17:37:09.498Z,28.50
2022-07-29T17:39:40.887Z,28.40
2022-07-29T17:42:10.519Z,28.30
2022-07-29T17:44:38.155Z,28.30
2022-07-29T17:47:07.908Z,28.20
2022-07-29T17:49:42.560Z,28.20
2022-07-29T17:52:09.741Z,28.20
2022-07-29T17:54:36.896Z,28.20
2022-07-29T17:57:04.116Z,28.20
2022-07-29T17:59:31.209Z,28.20
2022-07-29T18:01:58.351Z,28.30
2022-07-29T18:04:25.522Z,28.20
2022-07-29T18:06:52.583Z,28.20
2022-07-29T18:09:19.886Z,28.10
2022-07-29T18:11:48.792Z,28.10
2022-07-29T18:14:16.096Z,28.10
2022-07-29T18:16:43.230Z,28.10
2022-07-29T18:19:10.265Z,28.00
2022-07-29T18:21:41.090Z,28.00
2022-07-29T18:24:18.490Z,28.00
2022-07-29T18:26:45.509Z,28.00
2022-07-29T18:29:12.538Z,28.00
2022-07-29T18:31:41.137Z,27.90
2022-07-29T18:34:08.385Z,27.90
2022-07-29T18:36:35.409Z,27.80
2022-07-29T18:39:02.574Z,27.80
2022-07-29T18:41:29.658Z,27.80
2022-07-29T18:43:56.797Z,27.80
2022-07-29T18:46:25.539Z,27.70
2022-07-29T18:48:52.781Z,27.70
2022-07-29T18:51:19.906Z,27.70
2022-07-29T18:53:46.896Z,27.70
2022-07-29T18:56:14.401Z,27.70
2022-07-29T18:58:41.379Z,27.70
2022-07-29T19:01:08.436Z,27.70
2022-07-29T19:03:35.609Z,27.70
2022-07-29T19:06:02.717Z,27.70
2022-07-29T19:08:29.689Z,27.60
2022-07-29T19:10:56.947Z,27.50
2022-07-29T19:13:24.270Z,27.50
2022-07-29T19:15:51.347Z,27.40
2022-07-29T19:18:18.432Z,27.30
2022-07-29T19:20:45.469Z,27.30
2022-07-29T19:23:12.533Z,27.20
2022-07-29T19:25:53.690Z,27.10
2022-07-29T19:28:22.060Z,27.00
2022-07-29T19:30:49.560Z,27.00
2022-07-29T19:33:18.853Z,27.00
2022-07-29T19:35:49.296Z,26.90
2022-07-29T19:38:18.797Z,26.90
2022-07-29T19:40:45.878Z,26.80
2022-07-29T19:43:52.030Z,26.80
2022-07-29T19:46:00.023Z,26.80
2022-07-29T19:48:27.142Z,26.80
2022-07-29T19:50:54.202Z,26.80
2022-07-29T19:53:21.423Z,26.80
2022-07-29T19:55:48.535Z,26.80
2022-07-29T19:58:15.781Z,26.80
2022-07-29T20:00:43.587Z,26.80
2022-07-29T20:03:10.850Z,26.70
2022-07-29T20:05:37.981Z,26.70
2022-07-29T20:08:06.282Z,26.70
2022-07-29T20:10:34.006Z,26.70
2022-07-29T20:13:01.111Z,26.70
2022-07-29T20:15:28.234Z,26.60
2022-07-29T20:17:57.343Z,26.50
2022-07-29T20:20:25.488Z,26.40
2022-07-29T20:22:53.113Z,26.40
2022-07-29T20:25:20.319Z,26.40
2022-07-29T20:27:49.607Z,26.40
2022-07-29T20:30:16.675Z,26.40
2022-07-29T20:32:45.876Z,26.40
2022-07-29T20:35:13.593Z,26.40
2022-07-29T20:37:52.273Z,26.40
2022-07-29T20:40:25.216Z,26.40
2022-07-29T20:42:52.745Z,26.40
2022-07-29T20:45:20.188Z,26.30
2022-07-29T20:47:47.271Z,26.20
2022-07-29T20:50:14.384Z,26.10
2022-07-29T20:52:43.369Z,26.10
2022-07-29T20:55:10.637Z,26.00
2022-07-29T20:57:38.935Z,25.90
2022-07-29T21:00:08.646Z,25.80
2022-07-29T21:02:36.728Z,25.80
2022-07-29T21:05:04.228Z,25.70
2022-07-29T21:07:31.425Z,25.80
2022-07-29T21:09:58.428Z,25.80
2022-07-29T21:12:25.511Z,25.80
2022-07-29T21:14:52.582Z,25.80
2022-07-29T21:17:22.426Z,25.80
2022-07-29T21:19:55.328Z,25.80
2022-07-29T21:22:22.579Z,25.70
2022-07-29T21:24:49.872Z,25.60
2022-07-29T21:27:38.347Z,25.60
2022-07-29T21:30:07.822Z,25.50
2022-07-29T21:32:35.017Z,25.40
2022-07-29T21:35:02.000Z,25.40
2022-07-29T21:37:29.108Z,25.30
2022-07-29T21:39:56.159Z,25.30
2022-07-29T21:42:23.216Z,25.20
2022-07-29T21:44:51.993Z,25.30
2022-07-29T21:47:18.992Z,25.30
2022-07-29T21:49:46.587Z,25.40
2022-07-29T21:52:13.739Z,25.50
2022-07-29T21:54:41.979Z,25.50
2022-07-29T21:57:09.555Z,25.60
2022-07-29T21:59:36.758Z,25.60
2022-07-29T22:02:03.929Z,25.70
2022-07-29T22:04:31.747Z,25.70
2022-07-29T22:06:59.226Z,25.80
2022-07-29T22:09:26.808Z,25.80
2022-07-29T22:11:54.566Z,25.80
2022-07-29T22:14:22.297Z,25.80
2022-07-29T22:16:49.486Z,25.70
2022-07-29T22:19:16.537Z,25.70
2022-07-29T22:21:43.715Z,25.60
2022-07-29T22:24:11.309Z,25.50
2022-07-29T22:26:38.696Z,25.50
2022-07-29T22:29:06.530Z,25.40
2022-07-29T22:31:33.684Z,25.40
2022-07-29T22:34:00.774Z,25.40
2022-07-29T22:36:27.849Z,25.40
2022-07-29T22:38:54.993Z,25.30
2022-07-29T22:41:22.017Z,25.20
2022-07-29T22:43:49.006Z,25.20
2022-07-29T22:46:16.119Z,25.10
2022-07-29T22:48:43.426Z,25.10
2022-07-29T22:51:10.482Z,25.00
2022-07-29T22:53:37.644Z,25.00
2022-07-29T22:56:04.995Z,25.00
2022-07-29T22:58:32.034Z,25.00
2022-07-29T23:00:59.202Z,25.00
2022-07-29T23:03:26.456Z,25.00
2022-07-29T23:05:53.609Z,25.00
2022-07-29T23:08:20.795Z,25.10
2022-07-29T23:10:47.866Z,25.10
2022-07-29T23:13:15.035Z,25.10
2022-07-29T23:15:42.381Z,25.10
2022-07-29T23:18:09.662Z,25.10
2022-07-29T23:20:36.760Z,25.20
2022-07-29T23:23:04.133Z,25.20
2022-07-29T23:25:31.480Z,25.20
2022-07-29T23:27:58.552Z,25.20
2022-07-29T23:30:25.792Z,25.20
2022-07-29T23:32:53.357Z,25.20
2022-07-29T23:35:20.462Z,25.20
2022-07-29T23:37:47.545Z,25.20
2022-07-29T23:40:15.533Z,25.10
2022-07-29T23:42:43.067Z,25.10
2022-07-29T23:45:11.705Z,25.00
2022-07-29T23:47:39.004Z,25.00
2022-07-29T23:50:12.136Z,25.00
2022-07-29T23:52:42.535Z,25.00
2022-07-29T23:55:36.982Z,25.00
2022-07-29T23:58:00.853Z,25.00
